sensor_id;sensor_type;location;lat;lon;timestamp;temperature;humidity
33837;DHT22;20140;49.356;8.812;2024-01-15T00:02:03;-2.20;99.90
33837;DHT22;20140;49.356;8.812;2024-01-15T00:04:29;-2.20;99.90
33837;DHT22;20140;49.356;8.812;2024-01-15T00:06:55;-2.10;99.90
33837;DHT22;20140;49.356;8.812;2024-01-15T00:09:23;-2.10;99.90
33837;DHT22;20140;49.356;8.812;2024-01-15T00:11:48;-2.10;99.90
33837;DHT22;20140;49.356;8.812;2024-01-15T00:14:15;-2.10;99.90
33837;DHT22;20140;49.356;8.812;2024-01-15T00:16:45;-2.10;99.90
33837;DHT22;20140;49.356;8.812;2024-01-15T00:19:15;-2.10;99.90
33837;DHT22;20140;49.356;8.812;2024-01-15T00:21:41;-2.10;99.90
33837;DHT22;20140;49.356;8.812;2024-01-15T00:24:10;-2.10;99.90
33837;DHT22;20140;49.356;8.812;2024-01-15T00:26:36;-2.10;99.90
33837;DHT22;20140;49.356;8.812;2024-01-15T00:29:04;-2.10;99.90
33837;DHT22;20140;49.356;8.812;2024-01-15T00:31:33;-2.10;99.90
33837;DHT22;20140;49.356;8.812;2024-01-15T00:33:58;-2.10;99.90
33837;DHT22;20140;49.356;8.812;2024-01-15T00:36:24;-2.10;99.90
33837;DHT22;20140;49.356;8.812;2024-01-15T00:38:50;-2.10;99.90
33837;DHT22;20140;49.356;8.812;2024-01-15T00:41:17;-2.00;99.90
33837;DHT22;20140;49.356;8.812;2024-01-15T00:43:47;-2.00;99.90
33837;DHT22;20140;49.356;8.812;2024-01-15T00:46:17;-2.00;99.90
33837;DHT22;20140;49.356;8.812;2024-01-15T00:48:43;-2.00;99.90
33837;DHT22;20140;49.356;8.812;2024-01-15T00:51:14;-2.00;99.90
33837;DHT22;20140;49.356;8.812;2024-01-15T00:53:40;-2.00;99.90
33837;DHT22;20140;49.356;8.812;2024-01-15T00:56:07;-2.00;99.90
33837;DHT22;20140;49.356;8.812;2024-01-15T00:58:33;-2.00;99.90
33837;DHT22;20140;49.356;8.812;2024-01-15T01:01:01;-2.00;99.90
33837;DHT22;20140;49.356;8.812;2024-01-15T01:03:27;-2.00;99.90
33837;DHT22;20140;49.356;8.812;2024-01-15T01:05:52;-2.00;99.90
33837;DHT22;20140;49.356;8.812;2024-01-15T01:08:19;-2.10;99.90
33837;DHT22;20140;49.356;8.812;2024-01-15T01:10:48;-2.10;99.90
33837;DHT22;20140;49.356;8.812;2024-01-15T01:13:15;-2.00;99.90
33837;DHT22;20140;49.356;8.812;2024-01-15T01:15:43;-2.00;99.90
33837;DHT22;20140;49.356;8.812;2024-01-15T01:18:09;-2.00;99.90
33837;DHT22;20140;49.356;8.812;2024-01-15T01:20:37;-2.00;99.90
33837;DHT22;20140;49.356;8.812;2024-01-15T01:23:06;-2.00;99.90
33837;DHT22;20140;49.356;8.812;2024-01-15T01:25:34;-2.00;99.90
33837;DHT22;20140;49.356;8.812;2024-01-15T01:28:00;-1.90;99.90
33837;DHT22;20140;49.356;8.812;2024-01-15T01:30:26;-1.90;99.90
33837;DHT22;20140;49.356;8.812;2024-01-15T01:32:51;-1.90;99.90
33837;DHT22;20140;49.356;8.812;2024-01-15T01:35:18;-1.90;99.90
33837;DHT22;20140;49.356;8.812;2024-01-15T01:37:43;-1.90;99.90
33837;DHT22;20140;49.356;8.812;2024-01-15T01:40:12;-1.80;99.90
33837;DHT22;20140;49.356;8.812;2024-01-15T01:42:37;-1.80;99.90
33837;DHT22;20140;49.356;8.812;2024-01-15T01:45:03;-1.80;99.90
33837;DHT22;20140;49.356;8.812;2024-01-15T01:47:30;-1.80;99.90
33837;DHT22;20140;49.356;8.812;2024-01-15T01:49:58;-1.80;99.90
33837;DHT22;20140;49.356;8.812;2024-01-15T01:52:25;-1.80;99.90
33837;DHT22;20140;49.356;8.812;2024-01-15T01:54:52;-1.70;99.90
33837;DHT22;20140;49.356;8.812;2024-01-15T01:57:18;-1.70;99.90
33837;DHT22;20140;49.356;8.812;2024-01-15T01:59:45;-1.70;99.90
33837;DHT22;20140;49.356;8.812;2024-01-15T02:02:13;-1.80;99.90
33837;DHT22;20140;49.356;8.812;2024-01-15T02:04:43;-1.70;99.90
33837;DHT22;20140;49.356;8.812;2024-01-15T02:07:09;-1.70;99.90
33837;DHT22;20140;49.356;8.812;2024-01-15T02:09:36;-1.70;99.90
33837;DHT22;20140;49.356;8.812;2024-01-15T02:12:03;-1.70;99.90
33837;DHT22;20140;49.356;8.812;2024-01-15T02:14:30;-1.70;99.90
33837;DHT22;20140;49.356;8.812;2024-01-15T02:16:55;-1.70;99.90
33837;DHT22;20140;49.356;8.812;2024-01-15T02:19:22;-1.70;99.90
33837;DHT22;20140;49.356;8.812;2024-01-15T02:21:49;-1.70;99.90
33837;DHT22;20140;49.356;8.812;2024-01-15T02:24:16;-1.70;99.90
33837;DHT22;20140;49.356;8.812;2024-01-15T02:26:42;-1.70;99.90
33837;DHT22;20140;49.356;8.812;2024-01-15T02:29:08;-1.70;99.90
33837;DHT22;20140;49.356;8.812;2024-01-15T02:31:39;-1.70;99.90
33837;DHT22;20140;49.356;8.812;2024-01-15T02:34:05;-1.70;99.90
33837;DHT22;20140;49.356;8.812;2024-01-15T02:36:33;-1.70;99.90
33837;DHT22;20140;49.356;8.812;2024-01-15T02:39:02;-1.70;99.90
33837;DHT22;20140;49.356;8.812;2024-01-15T02:41:31;-1.70;99.90
33837;DHT22;20140;49.356;8.812;2024-01-15T02:44:00;-1.70;99.90
33837;DHT22;20140;49.356;8.812;2024-01-15T02:46:27;-1.70;99.90
33837;DHT22;20140;49.356;8.812;2024-01-15T02:48:54;-1.70;99.90
33837;DHT22;20140;49.356;8.812;2024-01-15T02:51:22;-1.70;99.90
33837;DHT22;20140;49.356;8.812;2024-01-15T02:53:53;-1.70;99.90
33837;DHT22;20140;49.356;8.812;2024-01-15T02:56:20;-1.70;99.90
33837;DHT22;20140;49.356;8.812;2024-01-15T02:58:46;-1.70;99.90
33837;DHT22;20140;49.356;8.812;2024-01-15T03:01:12;-1.70;99.90
33837;DHT22;20140;49.356;8.812;2024-01-15T03:03:41;-1.70;99.90
33837;DHT22;20140;49.356;8.812;2024-01-15T03:06:08;-1.70;99.90
33837;DHT22;20140;49.356;8.812;2024-01-15T03:08:35;-1.70;99.90
33837;DHT22;20140;49.356;8.812;2024-01-15T03:11:02;-1.70;99.90
33837;DHT22;20140;49.356;8.812;2024-01-15T03:13:28;-1.70;99.90
33837;DHT22;20140;49.356;8.812;2024-01-15T03:15:54;-1.70;99.90
33837;DHT22;20140;49.356;8.812;2024-01-15T03:18:20;-1.60;99.90
33837;DHT22;20140;49.356;8.812;2024-01-15T03:20:45;-1.60;99.90
33837;DHT22;20140;49.356;8.812;2024-01-15T03:23:11;-1.60;99.90
33837;DHT22;20140;49.356;8.812;2024-01-15T03:25:36;-1.70;99.90
33837;DHT22;20140;49.356;8.812;2024-01-15T03:28:02;-1.70;99.90
33837;DHT22;20140;49.356;8.812;2024-01-15T03:30:28;-1.70;99.90
33837;DHT22;20140;49.356;8.812;2024-01-15T03:32:54;-1.70;99.90
33837;DHT22;20140;49.356;8.812;2024-01-15T03:35:21;-1.70;99.90
33837;DHT22;20140;49.356;8.812;2024-01-15T03:37:48;-1.70;99.90
33837;DHT22;20140;49.356;8.812;2024-01-15T03:40:15;-1.70;99.90
33837;DHT22;20140;49.356;8.812;2024-01-15T03:42:43;-1.70;99.90
33837;DHT22;20140;49.356;8.812;2024-01-15T03:45:09;-1.60;99.90
33837;DHT22;20140;49.356;8.812;2024-01-15T03:47:35;-1.70;99.90
33837;DHT22;20140;49.356;8.812;2024-01-15T03:50:03;-1.70;99.90
33837;DHT22;20140;49.356;8.812;2024-01-15T03:52:31;-1.70;99.90
33837;DHT22;20140;49.356;8.812;2024-01-15T03:54:56;-1.70;99.90
33837;DHT22;20140;49.356;8.812;2024-01-15T03:57:23;-1.60;99.90
33837;DHT22;20140;49.356;8.812;2024-01-15T03:59:51;-1.60;99.90
33837;DHT22;20140;49.356;8.812;2024-01-15T04:02:19;-1.60;99.90
33837;DHT22;20140;49.356;8.812;2024-01-15T04:04:45;-1.60;99.90
33837;DHT22;20140;49.356;8.812;2024-01-15T04:07:11;-1.60;99.90
33837;DHT22;20140;49.356;8.812;2024-01-15T04:09:37;-1.70;99.90
33837;DHT22;20140;49.356;8.812;2024-01-15T04:12:03;-1.70;99.90
33837;DHT22;20140;49.356;8.812;2024-01-15T04:14:31;-1.60;99.90
33837;DHT22;20140;49.356;8.812;2024-01-15T04:17:01;-1.60;99.90
33837;DHT22;20140;49.356;8.812;2024-01-15T04:19:27;-1.60;99.90
33837;DHT22;20140;49.356;8.812;2024-01-15T04:21:53;-1.70;99.90
33837;DHT22;20140;49.356;8.812;2024-01-15T04:24:21;-1.60;99.90
33837;DHT22;20140;49.356;8.812;2024-01-15T04:26:48;-1.70;99.90
33837;DHT22;20140;49.356;8.812;2024-01-15T04:29:15;-1.60;99.90
33837;DHT22;20140;49.356;8.812;2024-01-15T04:31:41;-1.70;99.90
33837;DHT22;20140;49.356;8.812;2024-01-15T04:34:08;-1.60;99.90
33837;DHT22;20140;49.356;8.812;2024-01-15T04:36:39;-1.60;99.90
33837;DHT22;20140;49.356;8.812;2024-01-15T04:39:04;-1.60;99.90
33837;DHT22;20140;49.356;8.812;2024-01-15T04:41:30;-1.60;99.90
33837;DHT22;20140;49.356;8.812;2024-01-15T04:43:57;-1.60;99.90
33837;DHT22;20140;49.356;8.812;2024-01-15T04:46:27;-1.50;99.90
33837;DHT22;20140;49.356;8.812;2024-01-15T04:48:53;-1.50;99.90
33837;DHT22;20140;49.356;8.812;2024-01-15T04:51:19;-1.50;99.90
33837;DHT22;20140;49.356;8.812;2024-01-15T04:53:45;-1.50;99.90
33837;DHT22;20140;49.356;8.812;2024-01-15T04:56:13;-1.50;99.90
33837;DHT22;20140;49.356;8.812;2024-01-15T04:58:40;-1.50;99.90
33837;DHT22;20140;49.356;8.812;2024-01-15T05:01:05;-1.50;99.90
33837;DHT22;20140;49.356;8.812;2024-01-15T05:03:35;-1.60;99.90
33837;DHT22;20140;49.356;8.812;2024-01-15T05:06:01;-1.50;99.90
33837;DHT22;20140;49.356;8.812;2024-01-15T05:08:26;-1.50;99.90
33837;DHT22;20140;49.356;8.812;2024-01-15T05:10:52;-1.50;99.90
33837;DHT22;20140;49.356;8.812;2024-01-15T05:13:20;-1.50;99.90
33837;DHT22;20140;49.356;8.812;2024-01-15T05:15:48;-1.50;99.90
33837;DHT22;20140;49.356;8.812;2024-01-15T05:18:16;-1.50;99.90
33837;DHT22;20140;49.356;8.812;2024-01-15T05:20:43;-1.50;99.90
33837;DHT22;20140;49.356;8.812;2024-01-15T05:23:08;-1.50;99.90
33837;DHT22;20140;49.356;8.812;2024-01-15T05:25:34;-1.50;99.90
33837;DHT22;20140;49.356;8.812;2024-01-15T05:28:00;-1.50;99.90
33837;DHT22;20140;49.356;8.812;2024-01-15T05:30:29;-1.50;99.90
33837;DHT22;20140;49.356;8.812;2024-01-15T05:32:55;-1.40;99.90
33837;DHT22;20140;49.356;8.812;2024-01-15T05:35:20;-1.40;99.90
33837;DHT22;20140;49.356;8.812;2024-01-15T05:37:47;-1.40;99.90
33837;DHT22;20140;49.356;8.812;2024-01-15T05:40:14;-1.30;99.90
33837;DHT22;20140;49.356;8.812;2024-01-15T05:42:41;-1.40;99.90
33837;DHT22;20140;49.356;8.812;2024-01-15T05:45:07;-1.40;99.90
33837;DHT22;20140;49.356;8.812;2024-01-15T05:47:34;-1.40;99.90
33837;DHT22;20140;49.356;8.812;2024-01-15T05:50:03;-1.40;99.90
33837;DHT22;20140;49.356;8.812;2024-01-15T05:52:28;-1.40;99.90
33837;DHT22;20140;49.356;8.812;2024-01-15T05:54:54;-1.30;99.90
33837;DHT22;20140;49.356;8.812;2024-01-15T05:57:20;-1.30;99.90
33837;DHT22;20140;49.356;8.812;2024-01-15T05:59:47;-1.40;99.90
33837;DHT22;20140;49.356;8.812;2024-01-15T06:02:15;-1.40;99.90
33837;DHT22;20140;49.356;8.812;2024-01-15T06:04:41;-1.30;99.90
33837;DHT22;20140;49.356;8.812;2024-01-15T06:07:08;-1.40;99.90
33837;DHT22;20140;49.356;8.812;2024-01-15T06:09:35;-1.30;99.90
33837;DHT22;20140;49.356;8.812;2024-01-15T06:12:06;-1.30;99.90
33837;DHT22;20140;49.356;8.812;2024-01-15T06:14:32;-1.30;99.90
33837;DHT22;20140;49.356;8.812;2024-01-15T06:16:59;-1.30;99.90
33837;DHT22;20140;49.356;8.812;2024-01-15T06:19:27;-1.30;99.90
33837;DHT22;20140;49.356;8.812;2024-01-15T06:21:52;-1.20;99.90
33837;DHT22;20140;49.356;8.812;2024-01-15T06:24:18;-1.20;99.90
33837;DHT22;20140;49.356;8.812;2024-01-15T06:26:47;-1.20;99.90
33837;DHT22;20140;49.356;8.812;2024-01-15T06:29:13;-1.20;99.90
33837;DHT22;20140;49.356;8.812;2024-01-15T06:31:40;-1.20;99.90
33837;DHT22;20140;49.356;8.812;2024-01-15T06:34:06;-1.20;99.90
33837;DHT22;20140;49.356;8.812;2024-01-15T06:36:32;-1.10;99.90
33837;DHT22;20140;49.356;8.812;2024-01-15T06:38:58;-1.20;99.90
33837;DHT22;20140;49.356;8.812;2024-01-15T06:41:23;-1.10;99.90
33837;DHT22;20140;49.356;8.812;2024-01-15T06:43:51;-1.10;99.90
33837;DHT22;20140;49.356;8.812;2024-01-15T06:46:22;-1.10;99.90
33837;DHT22;20140;49.356;8.812;2024-01-15T06:48:50;-1.10;99.90
33837;DHT22;20140;49.356;8.812;2024-01-15T06:51:16;-1.10;99.90
33837;DHT22;20140;49.356;8.812;2024-01-15T06:53:42;-1.10;99.90
33837;DHT22;20140;49.356;8.812;2024-01-15T06:56:08;-1.10;99.90
33837;DHT22;20140;49.356;8.812;2024-01-15T06:58:35;-1.10;99.90
33837;DHT22;20140;49.356;8.812;2024-01-15T07:01:03;-1.10;99.90
33837;DHT22;20140;49.356;8.812;2024-01-15T07:03:31;-1.10;99.90
33837;DHT22;20140;49.356;8.812;2024-01-15T07:05:57;-1.10;99.90
33837;DHT22;20140;49.356;8.812;2024-01-15T07:08:30;-1.00;99.90
33837;DHT22;20140;49.356;8.812;2024-01-15T07:10:57;-1.00;99.90
33837;DHT22;20140;49.356;8.812;2024-01-15T07:13:24;-1.00;99.90
33837;DHT22;20140;49.356;8.812;2024-01-15T07:15:50;-1.00;99.90
33837;DHT22;20140;49.356;8.812;2024-01-15T07:18:19;-1.00;99.90
33837;DHT22;20140;49.356;8.812;2024-01-15T07:20:46;-1.00;99.90
33837;DHT22;20140;49.356;8.812;2024-01-15T07:23:14;-1.00;99.90
33837;DHT22;20140;49.356;8.812;2024-01-15T07:25:39;-1.00;99.90
33837;DHT22;20140;49.356;8.812;2024-01-15T07:28:05;-1.00;99.90
33837;DHT22;20140;49.356;8.812;2024-01-15T07:30:32;-1.00;99.90
33837;DHT22;20140;49.356;8.812;2024-01-15T07:32:58;-1.00;99.90
33837;DHT22;20140;49.356;8.812;2024-01-15T07:35:24;-1.00;99.90
33837;DHT22;20140;49.356;8.812;2024-01-15T07:37:52;-1.00;99.90
33837;DHT22;20140;49.356;8.812;2024-01-15T07:40:22;-0.90;99.90
33837;DHT22;20140;49.356;8.812;2024-01-15T07:42:48;-0.90;99.90
33837;DHT22;20140;49.356;8.812;2024-01-15T07:45:13;-0.90;99.90
33837;DHT22;20140;49.356;8.812;2024-01-15T07:47:40;-0.90;99.90
33837;DHT22;20140;49.356;8.812;2024-01-15T07:50:07;-0.80;99.90
33837;DHT22;20140;49.356;8.812;2024-01-15T07:52:33;-0.80;99.90
33837;DHT22;20140;49.356;8.812;2024-01-15T07:55:01;-0.80;99.90
33837;DHT22;20140;49.356;8.812;2024-01-15T07:57:29;-0.80;99.90
33837;DHT22;20140;49.356;8.812;2024-01-15T07:59:56;-0.70;99.90
33837;DHT22;20140;49.356;8.812;2024-01-15T08:02:22;-0.70;99.90
33837;DHT22;20140;49.356;8.812;2024-01-15T08:04:50;-0.80;99.90
33837;DHT22;20140;49.356;8.812;2024-01-15T08:07:15;-0.70;99.90
33837;DHT22;20140;49.356;8.812;2024-01-15T08:09:41;-0.70;99.90
33837;DHT22;20140;49.356;8.812;2024-01-15T08:12:07;-0.70;99.90
33837;DHT22;20140;49.356;8.812;2024-01-15T08:14:33;-0.70;99.90
33837;DHT22;20140;49.356;8.812;2024-01-15T08:17:01;-0.70;99.90
33837;DHT22;20140;49.356;8.812;2024-01-15T08:19:27;-0.70;99.90
33837;DHT22;20140;49.356;8.812;2024-01-15T08:21:55;-0.70;99.90
33837;DHT22;20140;49.356;8.812;2024-01-15T08:24:21;-0.70;99.90
33837;DHT22;20140;49.356;8.812;2024-01-15T08:26:48;-0.70;99.90
33837;DHT22;20140;49.356;8.812;2024-01-15T08:29:14;-0.60;99.90
33837;DHT22;20140;49.356;8.812;2024-01-15T08:31:41;-0.60;99.90
33837;DHT22;20140;49.356;8.812;2024-01-15T08:34:06;-0.60;99.90
33837;DHT22;20140;49.356;8.812;2024-01-15T08:36:33;-0.50;99.90
33837;DHT22;20140;49.356;8.812;2024-01-15T08:39:00;-0.50;99.90
33837;DHT22;20140;49.356;8.812;2024-01-15T08:41:27;-0.50;99.90
33837;DHT22;20140;49.356;8.812;2024-01-15T08:43:53;-0.50;99.90
33837;DHT22;20140;49.356;8.812;2024-01-15T08:46:21;-0.50;99.90
33837;DHT22;20140;49.356;8.812;2024-01-15T08:48:47;-0.40;99.90
33837;DHT22;20140;49.356;8.812;2024-01-15T08:51:14;-0.40;99.90
33837;DHT22;20140;49.356;8.812;2024-01-15T08:53:39;-0.40;99.90
33837;DHT22;20140;49.356;8.812;2024-01-15T08:56:09;-0.40;99.90
33837;DHT22;20140;49.356;8.812;2024-01-15T08:58:36;-0.30;99.90
33837;DHT22;20140;49.356;8.812;2024-01-15T09:01:02;-0.30;99.90
33837;DHT22;20140;49.356;8.812;2024-01-15T09:03:28;-0.30;99.90
33837;DHT22;20140;49.356;8.812;2024-01-15T09:05:55;-0.30;99.90
33837;DHT22;20140;49.356;8.812;2024-01-15T09:08:21;-0.30;99.90
33837;DHT22;20140;49.356;8.812;2024-01-15T09:10:52;-0.30;99.90
33837;DHT22;20140;49.356;8.812;2024-01-15T09:13:17;-0.30;99.90
33837;DHT22;20140;49.356;8.812;2024-01-15T09:15:43;-0.40;99.90
33837;DHT22;20140;49.356;8.812;2024-01-15T09:18:09;-0.40;99.90
33837;DHT22;20140;49.356;8.812;2024-01-15T09:20:36;-0.30;99.90
33837;DHT22;20140;49.356;8.812;2024-01-15T09:23:03;-0.30;99.90
33837;DHT22;20140;49.356;8.812;2024-01-15T09:25:30;-0.30;99.90
33837;DHT22;20140;49.356;8.812;2024-01-15T09:27:56;-0.30;99.90
33837;DHT22;20140;49.356;8.812;2024-01-15T09:30:22;-0.20;99.90
33837;DHT22;20140;49.356;8.812;2024-01-15T09:32:48;-0.20;99.90
33837;DHT22;20140;49.356;8.812;2024-01-15T09:35:14;-0.20;99.90
33837;DHT22;20140;49.356;8.812;2024-01-15T09:37:40;-0.20;99.90
33837;DHT22;20140;49.356;8.812;2024-01-15T09:40:08;-0.20;99.90
33837;DHT22;20140;49.356;8.812;2024-01-15T09:42:38;-0.20;99.90
33837;DHT22;20140;49.356;8.812;2024-01-15T09:45:04;-0.20;99.90
33837;DHT22;20140;49.356;8.812;2024-01-15T09:47:31;-0.30;99.90
33837;DHT22;20140;49.356;8.812;2024-01-15T09:49:58;-0.30;99.90
33837;DHT22;20140;49.356;8.812;2024-01-15T09:52:26;-0.40;99.90
33837;DHT22;20140;49.356;8.812;2024-01-15T09:54:54;-0.40;99.90
33837;DHT22;20140;49.356;8.812;2024-01-15T09:57:20;-0.40;99.90
33837;DHT22;20140;49.356;8.812;2024-01-15T09:59:47;-0.40;99.90
33837;DHT22;20140;49.356;8.812;2024-01-15T10:02:17;-0.40;99.90
33837;DHT22;20140;49.356;8.812;2024-01-15T10:04:44;-0.40;99.90
33837;DHT22;20140;49.356;8.812;2024-01-15T10:07:15;-0.40;99.90
33837;DHT22;20140;49.356;8.812;2024-01-15T10:09:45;-0.40;99.90
33837;DHT22;20140;49.356;8.812;2024-01-15T10:12:11;-0.40;99.90
33837;DHT22;20140;49.356;8.812;2024-01-15T10:14:37;-0.30;99.90
33837;DHT22;20140;49.356;8.812;2024-01-15T10:17:12;-0.30;99.90
33837;DHT22;20140;49.356;8.812;2024-01-15T10:19:39;-0.30;99.90
33837;DHT22;20140;49.356;8.812;2024-01-15T10:22:07;-0.30;99.90
33837;DHT22;20140;49.356;8.812;2024-01-15T10:24:36;-0.30;99.90
33837;DHT22;20140;49.356;8.812;2024-01-15T10:27:10;-0.30;99.90
33837;DHT22;20140;49.356;8.812;2024-01-15T10:29:36;-0.30;99.90
33837;DHT22;20140;49.356;8.812;2024-01-15T10:32:03;-0.30;99.90
33837;DHT22;20140;49.356;8.812;2024-01-15T10:34:31;-0.30;99.90
33837;DHT22;20140;49.356;8.812;2024-01-15T10:36:56;-0.30;99.90
33837;DHT22;20140;49.356;8.812;2024-01-15T10:39:23;-0.30;99.90
33837;DHT22;20140;49.356;8.812;2024-01-15T10:41:50;-0.30;99.90
33837;DHT22;20140;49.356;8.812;2024-01-15T10:44:19;-0.40;99.90
33837;DHT22;20140;49.356;8.812;2024-01-15T10:46:45;-0.30;99.90
33837;DHT22;20140;49.356;8.812;2024-01-15T10:49:14;-0.30;99.90
33837;DHT22;20140;49.356;8.812;2024-01-15T10:51:41;-0.30;99.90
33837;DHT22;20140;49.356;8.812;2024-01-15T10:54:09;-0.30;99.90
33837;DHT22;20140;49.356;8.812;2024-01-15T10:56:39;-0.40;99.90
33837;DHT22;20140;49.356;8.812;2024-01-15T10:59:05;-0.30;99.90
33837;DHT22;20140;49.356;8.812;2024-01-15T11:01:33;-0.30;99.90
33837;DHT22;20140;49.356;8.812;2024-01-15T11:04:00;-0.20;99.90
33837;DHT22;20140;49.356;8.812;2024-01-15T11:06:27;-0.20;99.90
33837;DHT22;20140;49.356;8.812;2024-01-15T11:08:54;-0.20;99.90
33837;DHT22;20140;49.356;8.812;2024-01-15T11:11:22;-0.20;99.90
33837;DHT22;20140;49.356;8.812;2024-01-15T11:13:48;-0.10;99.90
33837;DHT22;20140;49.356;8.812;2024-01-15T11:16:18;-0.10;99.90
33837;DHT22;20140;49.356;8.812;2024-01-15T11:19:02;0.00;99.90
33837;DHT22;20140;49.356;8.812;2024-01-15T11:21:28;-0.10;99.90
33837;DHT22;20140;49.356;8.812;2024-01-15T11:23:57;0.00;99.90
33837;DHT22;20140;49.356;8.812;2024-01-15T11:28:56;0.10;99.90
33837;DHT22;20140;49.356;8.812;2024-01-15T11:32:14;0.10;99.90
33837;DHT22;20140;49.356;8.812;2024-01-15T11:34:14;0.10;99.90
33837;DHT22;20140;49.356;8.812;2024-01-15T11:42:00;0.20;99.90
33837;DHT22;20140;49.356;8.812;2024-01-15T11:44:27;0.20;99.90
33837;DHT22;20140;49.356;8.812;2024-01-15T11:46:59;0.20;99.90
33837;DHT22;20140;49.356;8.812;2024-01-15T11:52:11;0.20;99.90
33837;DHT22;20140;49.356;8.812;2024-01-15T11:54:38;0.20;99.90
33837;DHT22;20140;49.356;8.812;2024-01-15T11:57:10;0.20;99.90
33837;DHT22;20140;49.356;8.812;2024-01-15T11:59:39;0.20;99.90
33837;DHT22;20140;49.356;8.812;2024-01-15T12:02:04;0.30;99.90
33837;DHT22;20140;49.356;8.812;2024-01-15T12:04:30;0.20;99.90
33837;DHT22;20140;49.356;8.812;2024-01-15T12:06:55;0.30;99.90
33837;DHT22;20140;49.356;8.812;2024-01-15T12:09:21;0.20;99.90
33837;DHT22;20140;49.356;8.812;2024-01-15T12:11:51;0.20;99.90
33837;DHT22;20140;49.356;8.812;2024-01-15T12:14:18;0.10;99.90
33837;DHT22;20140;49.356;8.812;2024-01-15T12:16:44;0.20;99.90
33837;DHT22;20140;49.356;8.812;2024-01-15T12:19:10;0.20;99.90
33837;DHT22;20140;49.356;8.812;2024-01-15T12:21:35;0.20;99.90
33837;DHT22;20140;49.356;8.812;2024-01-15T12:24:01;0.20;99.90
33837;DHT22;20140;49.356;8.812;2024-01-15T12:26:26;0.30;99.90
33837;DHT22;20140;49.356;8.812;2024-01-15T12:28:52;0.30;99.90
33837;DHT22;20140;49.356;8.812;2024-01-15T12:31:19;0.20;99.90
33837;DHT22;20140;49.356;8.812;2024-01-15T12:33:44;0.30;99.90
33837;DHT22;20140;49.356;8.812;2024-01-15T12:36:13;0.30;99.90
33837;DHT22;20140;49.356;8.812;2024-01-15T12:38:39;0.30;99.90
33837;DHT22;20140;49.356;8.812;2024-01-15T12:41:06;0.30;99.90
33837;DHT22;20140;49.356;8.812;2024-01-15T12:43:31;0.30;99.90
33837;DHT22;20140;49.356;8.812;2024-01-15T12:45:57;0.40;99.90
33837;DHT22;20140;49.356;8.812;2024-01-15T12:48:22;0.40;99.90
33837;DHT22;20140;49.356;8.812;2024-01-15T12:50:48;0.30;99.90
33837;DHT22;20140;49.356;8.812;2024-01-15T12:53:14;0.40;99.90
33837;DHT22;20140;49.356;8.812;2024-01-15T12:55:40;0.30;99.90
33837;DHT22;20140;49.356;8.812;2024-01-15T12:58:06;0.50;99.90
33837;DHT22;20140;49.356;8.812;2024-01-15T13:00:31;0.50;99.90
33837;DHT22;20140;49.356;8.812;2024-01-15T13:02:57;0.50;99.90
33837;DHT22;20140;49.356;8.812;2024-01-15T13:05:23;0.50;99.90
33837;DHT22;20140;49.356;8.812;2024-01-15T13:07:48;0.50;99.90
33837;DHT22;20140;49.356;8.812;2024-01-15T13:10:14;0.50;99.90
33837;DHT22;20140;49.356;8.812;2024-01-15T13:12:40;0.50;99.90
33837;DHT22;20140;49.356;8.812;2024-01-15T13:15:06;0.50;99.90
33837;DHT22;20140;49.356;8.812;2024-01-15T13:17:36;0.50;99.90
33837;DHT22;20140;49.356;8.812;2024-01-15T13:20:02;0.50;99.90
33837;DHT22;20140;49.356;8.812;2024-01-15T13:22:28;0.50;99.90
33837;DHT22;20140;49.356;8.812;2024-01-15T13:24:57;0.50;99.90
33837;DHT22;20140;49.356;8.812;2024-01-15T13:27:23;0.50;99.90
33837;DHT22;20140;49.356;8.812;2024-01-15T13:29:48;0.50;99.90
33837;DHT22;20140;49.356;8.812;2024-01-15T13:32:20;0.50;99.90
33837;DHT22;20140;49.356;8.812;2024-01-15T13:34:47;0.50;99.90
33837;DHT22;20140;49.356;8.812;2024-01-15T13:37:13;0.50;99.90
33837;DHT22;20140;49.356;8.812;2024-01-15T13:39:38;0.50;99.90
33837;DHT22;20140;49.356;8.812;2024-01-15T13:42:04;0.60;99.90
33837;DHT22;20140;49.356;8.812;2024-01-15T13:44:29;0.60;99.90
33837;DHT22;20140;49.356;8.812;2024-01-15T13:46:55;0.70;99.90
33837;DHT22;20140;49.356;8.812;2024-01-15T13:49:20;0.60;99.90
33837;DHT22;20140;49.356;8.812;2024-01-15T13:51:46;0.60;99.90
33837;DHT22;20140;49.356;8.812;2024-01-15T13:54:12;0.70;99.90
33837;DHT22;20140;49.356;8.812;2024-01-15T13:56:37;0.70;99.90
33837;DHT22;20140;49.356;8.812;2024-01-15T13:59:03;0.70;99.90
33837;DHT22;20140;49.356;8.812;2024-01-15T14:01:29;0.80;99.90
33837;DHT22;20140;49.356;8.812;2024-01-15T14:03:56;0.80;99.90
33837;DHT22;20140;49.356;8.812;2024-01-15T14:06:22;0.80;99.90
33837;DHT22;20140;49.356;8.812;2024-01-15T14:08:50;0.80;99.90
33837;DHT22;20140;49.356;8.812;2024-01-15T14:11:15;0.90;99.90
33837;DHT22;20140;49.356;8.812;2024-01-15T14:13:41;0.90;99.90
33837;DHT22;20140;49.356;8.812;2024-01-15T14:16:06;0.90;99.90
33837;DHT22;20140;49.356;8.812;2024-01-15T14:18:32;0.90;99.90
33837;DHT22;20140;49.356;8.812;2024-01-15T14:20:58;1.00;99.90
33837;DHT22;20140;49.356;8.812;2024-01-15T14:23:23;1.00;99.90
33837;DHT22;20140;49.356;8.812;2024-01-15T14:25:49;1.00;99.90
33837;DHT22;20140;49.356;8.812;2024-01-15T14:28:14;1.00;99.90
33837;DHT22;20140;49.356;8.812;2024-01-15T14:30:40;1.00;99.90
33837;DHT22;20140;49.356;8.812;2024-01-15T14:33:05;1.00;99.90
33837;DHT22;20140;49.356;8.812;2024-01-15T14:35:31;1.00;99.90
33837;DHT22;20140;49.356;8.812;2024-01-15T14:37:56;1.00;99.90
33837;DHT22;20140;49.356;8.812;2024-01-15T14:40:24;1.00;99.90
33837;DHT22;20140;49.356;8.812;2024-01-15T14:42:50;1.00;99.90
33837;DHT22;20140;49.356;8.812;2024-01-15T14:45:16;1.00;99.90
33837;DHT22;20140;49.356;8.812;2024-01-15T14:47:42;0.90;99.90
33837;DHT22;20140;49.356;8.812;2024-01-15T14:50:10;0.90;99.90
33837;DHT22;20140;49.356;8.812;2024-01-15T14:52:36;0.90;99.90
33837;DHT22;20140;49.356;8.812;2024-01-15T14:55:02;0.90;99.90
33837;DHT22;20140;49.356;8.812;2024-01-15T14:57:27;0.90;99.90
33837;DHT22;20140;49.356;8.812;2024-01-15T14:59:53;0.90;99.90
33837;DHT22;20140;49.356;8.812;2024-01-15T15:02:19;0.90;99.90
33837;DHT22;20140;49.356;8.812;2024-01-15T15:04:45;0.90;99.90
33837;DHT22;20140;49.356;8.812;2024-01-15T15:07:11;0.90;99.90
33837;DHT22;20140;49.356;8.812;2024-01-15T15:09:36;0.90;99.90
33837;DHT22;20140;49.356;8.812;2024-01-15T15:12:03;0.80;99.90
33837;DHT22;20140;49.356;8.812;2024-01-15T15:14:30;0.80;99.90
33837;DHT22;20140;49.356;8.812;2024-01-15T15:16:57;0.80;99.90
33837;DHT22;20140;49.356;8.812;2024-01-15T15:19:22;0.80;99.90
33837;DHT22;20140;49.356;8.812;2024-01-15T15:21:48;0.90;99.90
33837;DHT22;20140;49.356;8.812;2024-01-15T15:24:13;0.80;99.90
33837;DHT22;20140;49.356;8.812;2024-01-15T15:26:39;0.80;99.90
33837;DHT22;20140;49.356;8.812;2024-01-15T15:29:08;0.80;99.90
33837;DHT22;20140;49.356;8.812;2024-01-15T15:31:34;0.80;99.90
33837;DHT22;20140;49.356;8.812;2024-01-15T15:33:59;0.90;99.90
33837;DHT22;20140;49.356;8.812;2024-01-15T15:36:25;0.90;99.90
33837;DHT22;20140;49.356;8.812;2024-01-15T15:38:50;1.00;99.90
33837;DHT22;20140;49.356;8.812;2024-01-15T15:41:16;1.00;99.90
33837;DHT22;20140;49.356;8.812;2024-01-15T15:43:41;1.00;99.90